createdAt,value
2022-12-01T00:00:12.920Z,17.13
2022-12-01T00:03:35.841Z,17.08
2022-12-01T00:06:38.704Z,18.88
2022-12-01T00:09:59.412Z,13.85
2022-12-01T00:13:04.943Z,8.35
2022-12-01T00:16:16.104Z,7.13
2022-12-01T00:19:19.031Z,16.08
2022-12-01T00:22:21.106Z,19.25
2022-12-01T00:25:23.829Z,19.60
2022-12-01T00:28:25.978Z,19.08
2022-12-01T00:31:28.762Z,18.20
2022-12-01T00:34:31.127Z,20.58
2022-12-01T00:37:36.716Z,22.60
2022-12-01T00:40:39.849Z,22.20
2022-12-01T00:43:42.654Z,18.23
2022-12-01T00:46:44.735Z,17.15
2022-12-01T00:49:47.879Z,17.10
2022-12-01T00:52:50.026Z,8.43
2022-12-01T00:55:54.372Z,13.18
2022-12-01T00:58:56.974Z,18.05
2022-12-01T01:01:59.497Z,12.38
2022-12-01T01:05:01.525Z,8.15
2022-12-01T01:08:08.347Z,16.55
2022-12-01T01:11:10.815Z,18.83
2022-12-01T01:14:13.547Z,18.55
2022-12-01T01:17:15.465Z,13.77
2022-12-01T01:20:17.958Z,16.92
2022-12-01T01:23:20.178Z,20.75
2022-12-01T01:26:28.689Z,17.88
2022-12-01T01:29:31.243Z,18.75
2022-12-01T01:32:36.033Z,19.20
2022-12-01T01:35:38.439Z,22.55
2022-12-01T01:38:41.643Z,16.73
2022-12-01T01:41:43.656Z,21.13
2022-12-01T01:44:54.526Z,19.75
2022-12-01T01:47:59.966Z,22.27
2022-12-01T01:51:03.406Z,21.83
2022-12-01T01:54:15.987Z,20.63
2022-12-01T01:57:25.750Z,11.98
2022-12-01T02:00:28.080Z,16.92
2022-12-01T02:03:37.265Z,10.57
2022-12-01T02:06:39.874Z,9.73
2022-12-01T02:09:42.650Z,7.80
2022-12-01T02:13:18.733Z,7.78
2022-12-01T02:16:27.964Z,7.85
2022-12-01T02:20:24.198Z,7.85
2022-12-01T02:23:57.344Z,7.53
2022-12-01T02:27:09.543Z,7.47
2022-12-01T02:30:27.862Z,7.18
2022-12-01T02:33:38.977Z,14.80
2022-12-01T02:36:55.949Z,21.95
2022-12-01T02:40:15.489Z,17.73
2022-12-01T02:43:54.089Z,15.45
2022-12-01T02:47:15.744Z,13.30
2022-12-01T02:50:19.690Z,14.50
2022-12-01T02:53:22.879Z,15.75
2022-12-01T02:56:27.420Z,12.40
2022-12-01T02:59:29.441Z,19.10
2022-12-01T03:02:54.345Z,19.50
2022-12-01T03:06:08.718Z,13.02
2022-12-01T03:09:33.654Z,10.02
2022-12-01T03:12:50.251Z,12.77
2022-12-01T03:16:12.811Z,11.77
2022-12-01T03:19:27.195Z,12.63
2022-12-01T03:22:36.646Z,18.02
2022-12-01T03:25:42.234Z,20.60
2022-12-01T03:28:50.545Z,20.55
2022-12-01T03:31:59.383Z,22.67
2022-12-01T03:35:11.069Z,13.02
2022-12-01T03:38:19.054Z,18.27
2022-12-01T03:41:26.492Z,15.90
2022-12-01T03:44:42.069Z,22.33
2022-12-01T03:47:44.960Z,9.93
2022-12-01T03:50:57.019Z,9.63
2022-12-01T03:54:03.300Z,9.45
2022-12-01T03:57:11.200Z,8.27
2022-12-01T04:00:17.280Z,9.90
2022-12-01T04:03:24.844Z,7.70
2022-12-01T04:06:27.914Z,8.38
2022-12-01T04:09:30.208Z,7.70
2022-12-01T04:12:33.974Z,16.45
2022-12-01T04:16:03.517Z,21.98
2022-12-01T04:19:06.520Z,12.38
2022-12-01T04:22:08.589Z,18.88
2022-12-01T04:25:12.034Z,22.08
2022-12-01T04:28:14.414Z,20.95
2022-12-01T04:31:17.064Z,21.20
2022-12-01T04:34:19.155Z,21.27
2022-12-01T04:37:21.933Z,21.63
2022-12-01T04:40:24.323Z,20.83
2022-12-01T04:43:27.832Z,19.17
2022-12-01T04:46:31.269Z,16.38
2022-12-01T04:49:35.025Z,17.93
2022-12-01T04:52:38.415Z,18.58
2022-12-01T04:55:40.914Z,18.50
2022-12-01T04:58:43.322Z,19.23
2022-12-01T05:01:48.686Z,13.88
2022-12-01T05:04:50.983Z,11.32
2022-12-01T05:07:53.603Z,9.88
2022-12-01T05:10:57.183Z,9.80
2022-12-01T05:13:59.910Z,8.68
2022-12-01T05:17:02.638Z,9.30
2022-12-01T05:20:26.637Z,16.27
2022-12-01T05:23:31.690Z,17.00
2022-12-01T05:26:34.539Z,18.30
2022-12-01T05:29:36.753Z,10.40
2022-12-01T05:32:39.260Z,9.00
2022-12-01T05:35:41.658Z,9.23
2022-12-01T05:38:46.009Z,8.00
2022-12-01T05:41:49.077Z,7.93
2022-12-01T05:44:52.052Z,8.45
2022-12-01T05:47:59.071Z,16.90
2022-12-01T05:51:11.303Z,10.73
2022-12-01T05:54:13.514Z,11.45
2022-12-01T05:57:16.864Z,18.73
2022-12-01T06:00:19.373Z,18.92
2022-12-01T06:03:23.532Z,19.08
2022-12-01T06:06:26.206Z,19.63
2022-12-01T06:09:28.629Z,13.68
2022-12-01T06:12:30.939Z,21.05
2022-12-01T06:15:33.328Z,13.93
2022-12-01T06:18:38.049Z,12.63
2022-12-01T06:21:42.985Z,14.13
2022-12-01T06:24:47.509Z,15.00
2022-12-01T06:27:50.225Z,13.68
2022-12-01T06:30:55.424Z,10.70
2022-12-01T06:34:01.012Z,13.40
2022-12-01T06:37:03.295Z,16.35
2022-12-01T06:40:07.086Z,18.10
2022-12-01T06:43:09.598Z,15.73
2022-12-01T06:46:12.571Z,22.55
2022-12-01T06:49:15.058Z,20.23
2022-12-01T06:52:17.500Z,18.25
2022-12-01T06:55:20.288Z,18.88
2022-12-01T06:58:22.721Z,9.93
2022-12-01T07:01:25.629Z,15.55
2022-12-01T07:04:28.279Z,10.20
2022-12-01T07:07:31.311Z,8.23
2022-12-01T07:10:33.838Z,14.32
2022-12-01T07:13:37.502Z,12.60
2022-12-01T07:16:40.019Z,7.72
2022-12-01T07:19:42.295Z,15.32
2022-12-01T07:22:45.002Z,8.07
2022-12-01T07:25:47.607Z,7.47
2022-12-01T07:28:50.807Z,8.18
2022-12-01T07:31:53.817Z,9.40
2022-12-01T07:34:56.256Z,6.75
2022-12-01T07:37:58.830Z,6.93
2022-12-01T07:41:08.572Z,13.35
2022-12-01T07:44:12.190Z,14.57
2022-12-01T07:47:14.970Z,16.13
2022-12-01T07:50:17.131Z,18.95
2022-12-01T07:53:19.677Z,19.15
2022-12-01T07:56:23.343Z,8.70
2022-12-01T07:59:25.795Z,9.90
2022-12-01T08:02:28.289Z,7.05
2022-12-01T08:05:30.859Z,14.18
2022-12-01T08:08:35.127Z,14.50
2022-12-01T08:14:40.890Z,7.93
2022-12-01T08:17:43.617Z,7.80
2022-12-01T08:20:46.052Z,6.72
2022-12-01T08:23:52.409Z,6.32
2022-12-01T08:26:54.635Z,8.60
2022-12-01T08:29:57.164Z,8.70
2022-12-01T08:33:00.602Z,7.53
2022-12-01T08:36:05.382Z,17.30
2022-12-01T08:39:08.654Z,20.27
2022-12-01T08:42:11.724Z,22.67
2022-12-01T08:45:15.701Z,11.45
2022-12-01T08:48:21.720Z,19.23
2022-12-01T08:51:25.074Z,9.38
2022-12-01T08:54:29.420Z,12.55
2022-12-01T08:57:33.175Z,13.32
2022-12-01T09:00:35.762Z,8.35
2022-12-01T09:03:41.148Z,17.08
2022-12-01T09:06:51.203Z,9.70
2022-12-01T09:09:53.754Z,15.55
2022-12-01T09:12:58.046Z,12.88
2022-12-01T09:16:09.003Z,16.65
2022-12-01T09:19:13.432Z,13.65
2022-12-01T09:22:16.249Z,17.50
2022-12-01T09:25:19.070Z,16.65
2022-12-01T09:28:21.726Z,20.52
2022-12-01T09:31:24.669Z,11.63
2022-12-01T09:34:29.163Z,20.63
2022-12-01T09:37:32.759Z,17.00
2022-12-01T09:40:41.126Z,22.20
2022-12-01T09:43:52.237Z,25.48
2022-12-01T09:47:03.510Z,25.40
2022-12-01T09:50:09.880Z,21.50
2022-12-01T09:53:21.506Z,20.85
2022-12-01T09:56:26.329Z,24.15
2022-12-01T09:59:34.453Z,20.02
2022-12-01T10:02:42.331Z,17.65
2022-12-01T10:06:25.152Z,13.75
2022-12-01T10:09:34.621Z,10.90
2022-12-01T10:12:37.240Z,11.05
2022-12-01T10:16:00.864Z,21.20
2022-12-01T10:19:18.272Z,13.30
2022-12-01T10:22:32.930Z,10.50
2022-12-01T10:25:53.376Z,14.57
2022-12-01T10:29:11.420Z,20.75
2022-12-01T10:32:25.875Z,15.63
2022-12-01T10:35:36.304Z,24.08
2022-12-01T10:38:39.378Z,12.43
2022-12-01T10:41:42.151Z,18.80
2022-12-01T10:44:44.951Z,19.55
2022-12-01T10:48:11.244Z,13.65
2022-12-01T10:51:17.583Z,21.55
2022-12-01T10:54:21.438Z,14.68
2022-12-01T10:57:23.900Z,10.75
2022-12-01T11:00:58.607Z,10.75
2022-12-01T11:04:02.736Z,10.38
2022-12-01T11:07:05.342Z,9.25
2022-12-01T11:10:17.002Z,18.92
2022-12-01T11:13:31.352Z,12.15
2022-12-01T11:16:44.296Z,17.92
2022-12-01T11:19:46.923Z,9.75
2022-12-01T11:22:49.128Z,9.55
2022-12-01T11:26:13.899Z,9.60
2022-12-01T11:29:39.012Z,11.53
2022-12-01T11:32:56.180Z,8.57
2022-12-01T11:35:58.788Z,8.73
2022-12-01T11:39:08.092Z,9.38
2022-12-01T11:42:13.908Z,7.45
2022-12-01T11:45:22.552Z,7.75
2022-12-01T11:48:36.871Z,8.95
2022-12-01T11:54:56.032Z,7.40
2022-12-01T11:58:04.165Z,8.50
2022-12-01T12:01:22.170Z,7.57
2022-12-01T12:04:37.509Z,7.15
2022-12-01T12:07:58.498Z,8.00
2022-12-01T12:11:12.292Z,7.40
2022-12-01T12:14:29.453Z,7.50
2022-12-01T12:18:02.103Z,6.95
2022-12-01T12:21:33.635Z,6.95
2022-12-01T12:25:21.726Z,6.70
2022-12-01T12:28:47.088Z,7.60
2022-12-01T12:32:10.522Z,7.18
2022-12-01T12:35:39.509Z,7.75
2022-12-01T12:39:13.568Z,6.22
2022-12-01T12:42:21.801Z,6.82
2022-12-01T12:46:00.894Z,6.93
2022-12-01T12:49:22.173Z,5.90
2022-12-01T12:52:34.357Z,5.78
2022-12-01T12:55:44.756Z,7.70
2022-12-01T12:58:55.852Z,6.20
2022-12-01T13:02:21.009Z,5.57
2022-12-01T13:05:26.635Z,5.93
2022-12-01T13:08:44.366Z,7.07
2022-12-01T13:12:01.637Z,6.10
2022-12-01T13:15:14.321Z,5.22
2022-12-01T13:18:45.881Z,5.90
2022-12-01T13:21:50.856Z,7.28
2022-12-01T13:24:54.190Z,5.85
2022-12-01T13:27:59.250Z,6.82
2022-12-01T13:31:14.162Z,5.80
2022-12-01T13:34:36.801Z,7.25
2022-12-01T13:37:39.437Z,6.07
2022-12-01T13:40:41.725Z,4.93
2022-12-01T13:44:01.669Z,5.00
2022-12-01T13:47:05.921Z,4.40
2022-12-01T13:50:39.099Z,5.00
2022-12-01T13:54:25.848Z,5.00
2022-12-01T13:57:32.047Z,4.90
2022-12-01T14:00:35.251Z,4.53
2022-12-01T14:03:40.241Z,5.07
2022-12-01T14:06:51.479Z,4.35
2022-12-01T14:09:58.344Z,4.20
2022-12-01T14:13:05.308Z,4.47
2022-12-01T14:16:08.759Z,4.35
2022-12-01T14:19:29.740Z,4.88
2022-12-01T14:22:32.446Z,4.57
2022-12-01T14:25:34.734Z,4.25
2022-12-01T14:28:56.253Z,4.22
2022-12-01T14:32:02.066Z,4.53
2022-12-01T14:35:12.114Z,4.00
2022-12-01T14:38:14.863Z,4.07
2022-12-01T14:41:27.321Z,4.43
2022-12-01T14:44:36.039Z,4.35
2022-12-01T14:47:47.748Z,4.20
2022-12-01T14:50:54.107Z,4.05
2022-12-01T14:53:58.124Z,4.28
2022-12-01T14:57:07.417Z,4.17
2022-12-01T15:00:16.795Z,4.00
2022-12-01T15:03:19.357Z,4.40
2022-12-01T15:06:28.488Z,4.03
2022-12-01T15:09:34.014Z,4.30
2022-12-01T15:12:37.841Z,4.68
2022-12-01T15:15:52.125Z,4.10
2022-12-01T15:18:56.130Z,3.80
2022-12-01T15:22:03.983Z,3.67
2022-12-01T15:25:16.280Z,3.88
2022-12-01T15:28:23.073Z,3.97
2022-12-01T15:31:26.809Z,4.22
2022-12-01T15:34:34.266Z,3.80
2022-12-01T15:37:44.221Z,4.15
2022-12-01T15:44:34.283Z,3.53
2022-12-01T15:47:56.420Z,3.67
2022-12-01T15:51:17.789Z,4.82
2022-12-01T15:54:24.973Z,3.90
2022-12-01T15:57:28.468Z,3.88
2022-12-01T16:00:31.228Z,3.90
2022-12-01T16:04:05.789Z,3.75
2022-12-01T16:07:11.199Z,3.50
2022-12-01T16:10:36.058Z,3.55
2022-12-01T16:13:57.784Z,3.53
2022-12-01T16:17:01.620Z,3.60
2022-12-01T16:20:23.242Z,3.30
2022-12-01T16:23:27.617Z,3.30
2022-12-01T16:26:32.057Z,3.75
2022-12-01T16:29:55.262Z,3.30
2022-12-01T16:33:07.415Z,3.70
2022-12-01T16:36:10.463Z,9.85
2022-12-01T16:39:15.038Z,9.35
2022-12-01T16:42:21.691Z,5.25
2022-12-01T16:45:27.328Z,4.22
2022-12-01T16:48:32.160Z,4.10
2022-12-01T16:51:54.626Z,8.68
2022-12-01T16:54:59.477Z,5.63
2022-12-01T16:58:02.318Z,8.70
2022-12-01T17:01:07.059Z,10.52
2022-12-01T17:04:09.871Z,6.47
2022-12-01T17:07:12.653Z,4.00
2022-12-01T17:10:15.125Z,5.43
2022-12-01T17:13:20.063Z,5.18
2022-12-01T17:16:22.360Z,4.57
2022-12-01T17:19:25.234Z,7.75
2022-12-01T17:22:27.538Z,10.35
2022-12-01T17:25:30.454Z,10.77
2022-12-01T17:28:33.129Z,11.02
2022-12-01T17:31:36.273Z,11.35
2022-12-01T17:34:39.063Z,10.55
2022-12-01T17:37:42.086Z,8.68
2022-12-01T17:40:44.141Z,8.52
2022-12-01T17:43:47.018Z,5.70
2022-12-01T17:46:49.191Z,7.72
2022-12-01T17:49:51.727Z,4.57
2022-12-01T17:52:53.874Z,4.97
2022-12-01T17:55:56.375Z,4.93
2022-12-01T17:58:59.293Z,6.57
2022-12-01T18:02:02.133Z,7.07
2022-12-01T18:05:04.835Z,8.18
2022-12-01T18:08:07.734Z,9.90
2022-12-01T18:11:16.094Z,8.52
2022-12-01T18:14:18.714Z,5.55
2022-12-01T18:17:20.833Z,5.00
2022-12-01T18:20:23.350Z,4.30
2022-12-01T18:23:26.004Z,4.90
2022-12-01T18:26:32.135Z,5.22
2022-12-01T18:29:35.282Z,6.00
2022-12-01T18:32:38.207Z,4.53
2022-12-01T18:35:44.678Z,4.57
2022-12-01T18:38:48.733Z,4.70
2022-12-01T18:41:51.198Z,4.25
2022-12-01T18:44:54.759Z,4.10
2022-12-01T18:47:56.866Z,4.68
2022-12-01T18:51:07.907Z,3.92
2022-12-01T18:54:13.753Z,4.40
2022-12-01T18:57:16.474Z,4.28
2022-12-01T19:00:19.825Z,4.30
2022-12-01T19:03:22.335Z,4.47
2022-12-01T19:06:25.811Z,4.07
2022-12-01T19:09:29.555Z,3.92
2022-12-01T19:12:36.411Z,3.85
2022-12-01T19:15:42.045Z,4.00
2022-12-01T19:18:44.741Z,4.50
2022-12-01T19:21:47.368Z,3.88
2022-12-01T19:24:50.869Z,4.05
2022-12-01T19:27:53.414Z,3.85
2022-12-01T19:30:56.014Z,3.53
2022-12-01T19:33:59.195Z,4.07
2022-12-01T19:37:01.727Z,4.07
2022-12-01T19:40:05.036Z,4.00
2022-12-01T19:43:07.170Z,4.03
2022-12-01T19:46:13.291Z,3.78
2022-12-01T19:49:15.414Z,3.70
2022-12-01T19:52:18.064Z,3.83
2022-12-01T19:55:20.124Z,4.18
2022-12-01T19:58:25.798Z,3.90
2022-12-01T20:01:29.112Z,3.95
2022-12-01T20:04:31.975Z,3.97
2022-12-01T20:07:34.225Z,3.80
2022-12-01T20:10:38.421Z,4.50
2022-12-01T20:13:44.984Z,4.13
2022-12-01T20:16:49.277Z,4.07
2022-12-01T20:19:52.379Z,3.70
2022-12-01T20:22:55.743Z,4.10
2022-12-01T20:26:03.742Z,3.90
2022-12-01T20:29:09.695Z,3.97
2022-12-01T20:32:11.746Z,3.70
2022-12-01T20:35:15.876Z,4.10
2022-12-01T20:38:25.837Z,3.47
2022-12-01T20:41:33.663Z,4.00
2022-12-01T20:44:37.171Z,4.43
2022-12-01T20:47:44.216Z,4.38
2022-12-01T20:50:47.199Z,4.07
2022-12-01T20:54:12.351Z,8.50
2022-12-01T20:57:13.032Z,4.63
2022-12-01T21:00:17.411Z,4.93
2022-12-01T21:03:19.606Z,4.47
2022-12-01T21:06:23.051Z,4.53
2022-12-01T21:09:26.598Z,4.68
2022-12-01T21:12:48.453Z,5.30
2022-12-01T21:16:01.669Z,4.95
2022-12-01T21:19:17.085Z,4.90
2022-12-01T21:22:22.388Z,4.75
2022-12-01T21:25:25.757Z,3.78
2022-12-01T21:28:27.954Z,4.50
2022-12-01T21:31:32.557Z,4.22
2022-12-01T21:34:35.958Z,4.40
2022-12-01T21:37:39.755Z,4.20
2022-12-01T21:40:46.997Z,4.63
2022-12-01T21:43:49.719Z,5.10
2022-12-01T21:46:59.271Z,5.10
2022-12-01T21:50:21.979Z,4.60
2022-12-01T21:53:34.152Z,5.65
2022-12-01T21:56:40.645Z,5.45
2022-12-01T21:59:43.242Z,5.80
2022-12-01T22:02:51.855Z,5.85
2022-12-01T22:09:35.274Z,10.57
2022-12-01T22:12:42.560Z,6.30
2022-12-01T22:15:45.817Z,6.82
2022-12-01T22:19:00.414Z,6.30
2022-12-01T22:22:09.391Z,6.60
2022-12-01T22:25:30.287Z,6.57
2022-12-01T22:28:33.042Z,8.75
2022-12-01T22:31:35.349Z,10.40
2022-12-01T22:34:53.443Z,12.55
2022-12-01T22:38:43.663Z,7.00
2022-12-01T22:41:46.084Z,12.40
2022-12-01T22:44:48.426Z,8.20
2022-12-01T22:47:56.369Z,13.38
2022-12-01T22:51:08.447Z,13.23
2022-12-01T22:54:15.096Z,9.48
2022-12-01T22:57:35.889Z,6.28
2022-12-01T23:00:39.492Z,22.33
2022-12-01T23:03:44.973Z,14.57
2022-12-01T23:07:13.090Z,15.65
2022-12-01T23:10:23.828Z,12.93
2022-12-01T23:13:28.742Z,15.52
2022-12-01T23:16:31.399Z,22.02
2022-12-01T23:19:37.946Z,9.60
2022-12-01T23:22:42.131Z,9.65
2022-12-01T23:25:46.986Z,8.68
2022-12-01T23:28:49.738Z,8.40
2022-12-01T23:31:52.717Z,7.78
2022-12-01T23:35:00.495Z,7.65
2022-12-01T23:38:03.421Z,13.70
2022-12-01T23:41:21.514Z,12.20
2022-12-01T23:44:41.324Z,8.77
2022-12-01T23:47:43.869Z,8.60
2022-12-01T23:50:49.757Z,7.85
2022-12-01T23:53:53.883Z,7.93
